.
WxDataArchive / Data Records for 2012-10-21
2012-10-20 October 2012 2012-10-22

Data Records for Sunday, 21 October 2012

Time	Temp	Chill	HIndex	Humid	Dewpt	 Wind 	HiWind	WindDir	Rain 	Barom 
-----	----	-----	------	-----	-----	------	------	-------	-----	----- 
00:00	48.9	48.9	48.9	73	40.6	0	1	270	0.00	29.946 
00:05	48.6	48.6	48.6	74	40.7	0	1	270	0.00	29.946 
00:10	48.3	48.3	48.3	74	40.4	0	2	270	0.00	29.946 
00:15	48.0	48.0	48.0	75	40.5	0	1	270	0.00	29.946 
00:20	47.7	47.7	47.7	76	40.5	0	1	270	0.00	29.946 
00:25	47.6	47.6	47.6	76	40.4	0	1	270	0.00	29.946 
00:30	47.3	47.3	47.3	77	40.5	0	1	270	0.00	29.946 
00:35	47.0	47.0	47.0	77	40.2	0	3	270	0.00	29.946 
00:40	47.0	47.0	47.0	78	40.5	0	1	270	0.00	29.946 
00:45	46.8	46.8	46.8	78	40.3	0	1	270	0.00	29.945 
00:50	46.5	46.5	46.5	78	40.0	0	1	270	0.00	29.945 
00:55	46.4	46.4	46.4	79	40.2	0	1	270	0.00	29.945 
01:00	46.2	46.2	46.2	79	40.1	0	1	270	0.00	29.948 
01:05	46.1	46.1	46.1	79	40.0	0	0	---	0.00	29.948 
01:10	46.0	46.0	46.0	80	40.2	0	1	270	0.00	29.948 
01:15	45.8	45.8	45.8	80	40.0	0	0	---	0.00	29.960 
01:20	45.7	45.7	45.7	80	39.9	0	0	---	0.00	29.960 
01:25	45.5	45.5	45.5	81	40.0	0	0	---	0.00	29.960 
01:30	45.2	45.2	45.2	81	39.7	0	0	---	0.00	29.973 
01:35	44.9	44.9	44.9	81	39.4	0	0	---	0.00	29.973 
01:40	44.6	44.6	44.6	82	39.4	0	0	---	0.00	29.973 
01:45	44.3	44.3	44.3	82	39.2	0	0	---	0.00	29.978 
01:50	44.2	44.2	44.2	83	39.4	0	0	---	0.00	29.978 
01:55	44.2	44.2	44.2	83	39.4	0	0	---	0.00	29.978 
02:00	44.1	44.1	44.1	84	39.6	0	0	---	0.00	29.980 
02:05	43.9	43.9	43.9	84	39.4	0	0	---	0.00	29.980 
02:10	43.8	43.8	43.8	84	39.3	0	0	---	0.00	29.980 
02:15	43.6	43.6	43.6	84	39.1	0	0	---	0.00	29.986 
02:20	43.3	43.3	43.3	84	38.8	0	0	---	0.00	29.986 
02:25	43.2	43.2	43.2	85	39.0	0	0	---	0.00	29.986 
02:30	42.9	42.9	42.9	85	38.7	0	0	---	0.00	29.994 
02:35	42.6	42.6	42.6	85	38.4	0	0	---	0.00	29.994 
02:40	42.5	42.5	42.5	85	38.3	0	0	---	0.00	29.994 
02:45	42.2	42.2	42.2	86	38.3	0	0	---	0.00	29.997 
02:50	42.1	42.1	42.1	86	38.2	0	0	---	0.00	29.997 
02:55	41.8	41.8	41.8	86	37.9	0	0	---	0.00	29.997 
03:00	41.5	41.5	41.5	86	37.6	0	0	---	0.00	30.006 
03:05	41.3	41.3	41.3	86	37.4	0	0	---	0.00	30.006 
03:10	41.1	41.1	41.1	86	37.2	0	0	---	0.00	30.006 
03:15	40.9	40.9	40.9	87	37.3	0	0	---	0.00	30.009 
03:20	40.8	40.8	40.8	87	37.2	0	0	---	0.00	30.009 
03:25	40.8	40.8	40.8	88	37.5	0	0	---	0.00	30.009 
03:30	40.6	40.6	40.6	88	37.3	0	0	---	0.00	30.013 
03:35	40.5	40.5	40.5	88	37.2	0	0	---	0.00	30.013 
03:40	40.3	40.3	40.3	88	37.0	0	0	---	0.00	30.013 
03:45	40.3	40.3	40.3	89	37.3	0	0	---	0.00	30.013 
03:50	40.1	40.1	40.1	89	37.1	0	0	---	0.00	30.013 
03:55	39.9	39.9	39.9	89	36.9	0	0	---	0.00	30.013 
04:00	39.8	39.8	39.8	89	36.8	0	0	---	0.00	30.019 
04:05	39.6	39.6	39.6	89	36.6	0	0	---	0.00	30.019 
04:10	39.6	39.6	39.6	90	36.9	0	0	---	0.00	30.019 
04:15	39.6	39.6	39.6	90	36.9	0	0	---	0.00	30.026 
04:20	39.8	39.8	39.8	90	37.1	0	0	---	0.00	30.026 
04:25	39.8	39.8	39.8	90	37.1	0	0	---	0.00	30.026 
04:30	39.6	39.6	39.6	91	37.2	0	0	---	0.00	30.028 
04:35	39.6	39.6	39.6	91	37.2	0	0	---	0.00	30.028 
04:40	39.6	39.6	39.6	91	37.2	0	0	---	0.00	30.028 
04:45	39.6	39.6	39.6	91	37.2	0	0	---	0.00	30.028 
04:50	39.5	39.5	39.5	91	37.1	0	0	---	0.00	30.028 
04:55	39.2	39.2	39.2	91	36.8	0	0	---	0.00	30.028 
05:00	39.1	39.1	39.1	91	36.7	0	0	---	0.00	30.034 
05:05	38.9	38.9	38.9	91	36.5	0	0	---	0.00	30.034 
05:10	38.6	38.6	38.6	91	36.2	0	0	---	0.00	30.034 
05:15	38.3	38.3	38.3	91	35.9	0	0	---	0.00	30.039 
05:20	38.2	38.2	38.2	91	35.8	0	0	---	0.00	30.039 
05:25	38.0	38.0	38.0	91	35.6	0	0	---	0.00	30.039 
05:30	37.9	37.9	37.9	91	35.5	0	0	---	0.00	30.043 
05:35	37.8	37.8	37.8	91	35.4	0	0	---	0.00	30.043 
05:40	37.8	37.8	37.8	92	35.7	0	0	---	0.00	30.043 
05:45	37.6	37.6	37.6	92	35.5	0	0	---	0.00	30.047 
05:50	37.6	37.6	37.6	92	35.5	0	0	---	0.00	30.047 
05:55	37.5	37.5	37.5	92	35.4	0	0	---	0.00	30.047 
06:00	37.3	37.3	37.3	92	35.2	0	0	---	0.00	30.049 
06:05	37.2	37.2	37.2	92	35.1	0	0	---	0.00	30.049 
06:10	37.0	37.0	37.0	92	34.9	0	0	---	0.00	30.049 
06:15	36.9	36.9	36.9	92	34.8	0	0	---	0.00	30.057 
06:20	36.9	36.9	36.9	92	34.8	0	0	---	0.00	30.057 
06:25	36.8	36.8	36.8	92	34.7	0	0	---	0.00	30.057 
06:30	36.6	36.6	36.6	92	34.5	0	0	---	0.00	30.054 
06:35	36.8	36.8	36.8	92	34.7	0	0	---	0.00	30.054 
06:40	36.8	36.8	36.8	92	34.7	0	0	---	0.00	30.054 
06:45	36.6	36.6	36.6	92	34.5	0	0	---	0.00	30.063 
06:50	36.5	36.5	36.5	92	34.4	0	0	---	0.00	30.063 
06:55	36.3	36.3	36.3	92	34.2	0	0	---	0.00	30.063 
07:00	36.2	36.2	36.2	92	34.1	0	0	---	0.00	30.062 
07:05	36.0	36.0	36.0	92	33.9	0	0	---	0.00	30.062 
07:10	35.9	35.9	35.9	92	33.8	0	0	---	0.00	30.062 
07:15	35.9	35.9	35.9	92	33.8	0	0	---	0.00	30.065 
07:20	35.8	35.8	35.8	92	33.7	0	0	---	0.00	30.065 
07:25	35.8	35.8	35.8	92	33.7	0	0	---	0.00	30.065 
07:30	35.6	35.6	35.6	92	33.5	0	0	---	0.00	30.069 
07:35	35.6	35.6	35.6	92	33.5	0	0	---	0.00	30.069 
07:40	35.6	35.6	35.6	92	33.5	0	0	---	0.00	30.069 
07:45	35.6	35.6	35.6	92	33.5	0	0	---	0.00	30.078 
07:50	35.5	35.5	35.5	92	33.4	0	0	---	0.00	30.078 
07:55	35.5	35.5	35.5	92	33.4	0	0	---	0.00	30.078 
08:00	35.3	35.3	35.3	92	33.2	0	0	---	0.00	30.078 
08:05	35.2	35.2	35.2	92	33.1	0	0	---	0.00	30.078 
08:10	35.2	35.2	35.2	92	33.1	0	0	---	0.00	30.078 
08:15	35.0	35.0	35.0	92	32.9	0	0	---	0.00	30.081 
08:20	35.0	35.0	35.0	92	32.9	0	0	---	0.00	30.081 
08:25	35.0	35.0	35.0	92	32.9	0	0	---	0.00	30.081 
08:30	35.0	35.0	35.0	93	33.2	0	0	---	0.00	30.082 
08:35	35.0	35.0	35.0	93	33.2	0	0	---	0.00	30.082 
08:40	35.2	35.2	35.2	93	33.4	0	0	---	0.00	30.082 
08:45	35.2	35.2	35.2	93	33.4	0	0	---	0.00	30.084 
08:50	35.6	35.6	35.6	93	33.8	0	0	---	0.00	30.084 
08:55	35.9	35.9	35.9	93	34.1	0	0	---	0.00	30.084 
09:00	36.3	36.3	36.3	94	34.7	0	0	---	0.00	30.091 
09:05	36.8	36.8	36.8	94	35.2	0	0	---	0.00	30.091 
09:10	37.6	37.6	37.6	94	36.0	0	0	---	0.00	30.091 
09:15	38.5	38.5	38.5	94	36.9	0	0	---	0.00	30.094 
09:20	39.2	39.2	39.2	95	37.9	0	0	---	0.00	30.094 
09:25	40.1	40.1	40.1	95	38.8	0	0	---	0.00	30.094 
09:30	41.1	41.1	41.1	95	39.8	0	0	---	0.00	30.092 
09:35	41.8	41.8	41.8	95	40.5	0	0	---	0.00	30.092 
09:40	42.5	42.5	42.5	95	41.2	0	1	68	0.00	30.092 
09:45	43.5	43.5	43.5	95	42.2	0	1	68	0.00	30.093 
09:50	44.3	44.3	44.3	95	43.0	0	1	68	0.00	30.093 
09:55	45.4	45.4	45.4	94	43.8	0	1	68	0.00	30.093 
10:00	46.4	46.4	46.4	92	44.2	0	1	68	0.00	30.089 
10:05	47.4	47.4	47.4	89	44.3	0	1	68	0.00	30.089 
10:10	48.5	48.5	48.5	88	45.1	0	1	68	0.00	30.089 
10:15	49.4	49.4	49.4	86	45.4	0	1	68	0.00	30.099 
10:20	50.1	50.1	50.1	84	45.5	0	2	68	0.00	30.099 
10:25	50.8	50.8	50.8	82	45.5	0	2	68	0.00	30.099 
10:30	51.0	51.0	51.0	80	45.0	0	1	68	0.00	30.096 
10:35	51.7	51.7	51.7	77	44.7	0	2	68	0.00	30.096 
10:40	52.3	52.3	52.3	75	44.6	0	2	68	0.00	30.096 
10:45	52.6	52.6	52.6	74	44.6	0	2	68	0.00	30.097 
10:50	53.2	53.2	53.2	73	44.8	0	2	68	0.00	30.097 
10:55	53.8	53.8	53.8	73	45.3	0	1	68	0.00	30.097 
11:00	54.2	54.2	54.2	69	44.3	1	4	68	0.00	30.101 
11:05	54.7	54.7	54.7	70	45.1	0	1	68	0.00	30.101 
11:10	54.8	54.8	54.8	68	44.4	0	2	68	0.00	30.101 
11:15	55.1	55.1	55.1	68	44.7	0	2	68	0.00	30.100 
11:20	55.3	55.3	55.3	66	44.1	1	3	68	0.00	30.100 
11:25	55.3	55.3	55.3	66	44.1	0	2	292	0.00	30.100 
11:30	55.3	55.3	55.3	65	43.7	1	3	292	0.00	30.102 
11:35	55.4	55.4	55.4	66	44.2	0	2	292	0.00	30.102 
11:40	56.0	56.0	56.0	66	44.8	1	2	292	0.00	30.102 
11:45	56.3	56.3	56.3	62	43.4	1	3	22	0.00	30.101 
11:50	56.2	56.2	56.2	61	42.9	1	3	248	0.00	30.101 
11:55	56.2	56.2	56.2	63	43.8	0	2	248	0.00	30.101 
12:00	56.6	56.6	56.6	62	43.7	1	4	248	0.00	30.101 
12:05	56.9	56.9	56.9	61	43.6	1	3	68	0.00	30.101 
12:10	56.9	56.9	56.9	59	42.7	1	3	68	0.00	30.101 
12:15	56.7	56.7	56.7	59	42.5	1	4	248	0.00	30.106 
12:20	56.7	56.7	56.7	61	43.4	1	3	315	0.00	30.106 
12:25	56.9	56.9	56.9	62	44.0	1	4	68	0.00	30.106 
12:30	57.2	57.2	57.2	61	43.9	1	4	22	0.00	30.100 
12:35	57.3	57.3	57.3	60	43.5	1	3	68	0.00	30.100 
12:40	57.5	57.5	57.5	59	43.3	2	5	112	0.00	30.100 
12:45	57.6	57.6	57.6	58	42.9	2	5	90	0.00	30.097 
12:50	57.5	57.5	57.5	60	43.7	1	4	90	0.00	30.097 
12:55	57.6	57.6	57.6	57	42.5	1	4	90	0.00	30.097 
13:00	57.8	57.8	57.8	58	43.1	1	3	248	0.00	30.094 
13:05	58.1	58.1	58.1	57	42.9	1	3	225	0.00	30.094 
13:10	58.3	58.3	58.3	57	43.1	1	3	90	0.00	30.094 
13:15	58.4	58.4	58.4	59	44.1	1	4	90	0.00	30.090 
13:20	58.4	58.4	58.4	59	44.1	1	4	90	0.00	30.090 
13:25	58.9	58.9	58.9	58	44.1	0	3	90	0.00	30.090 
13:30	59.0	59.0	59.0	57	43.8	2	4	248	0.00	30.083 
13:35	59.0	59.0	59.0	58	44.2	1	2	248	0.00	30.083 
13:40	59.2	59.2	59.2	59	44.9	1	5	248	0.00	30.083 
13:45	59.2	59.2	59.2	58	44.4	1	4	112	0.00	30.078 
13:50	59.2	59.2	59.2	59	44.9	1	4	90	0.00	30.078 
13:55	59.3	59.3	59.3	58	44.5	1	4	68	0.00	30.078 
14:00	59.5	59.5	59.5	60	45.6	0	1	68	0.00	30.071 
14:05	59.6	59.6	59.6	58	44.8	0	1	68	0.00	30.071 
14:10	59.8	59.8	59.8	58	45.0	0	2	68	0.00	30.071 
14:15	60.1	60.1	60.1	59	45.7	0	2	248	0.00	30.067 
14:20	60.1	60.1	60.1	56	44.3	1	4	112	0.00	30.067 
14:25	60.2	60.2	60.2	58	45.4	0	3	112	0.00	30.067 
14:30	60.4	60.4	60.4	58	45.6	0	3	248	0.00	30.064 
14:35	60.5	60.5	60.5	58	45.6	0	2	248	0.00	30.064 
14:40	60.7	60.7	60.7	58	45.8	0	2	248	0.00	30.064 
14:45	60.9	60.9	60.9	58	46.0	1	4	90	0.00	30.062 
14:50	60.9	60.9	60.9	57	45.6	1	4	90	0.00	30.062 
14:55	61.0	61.0	61.0	58	46.1	0	2	90	0.00	30.062 
15:00	61.0	61.0	61.0	56	45.2	1	4	90	0.00	30.052 
15:05	60.9	60.9	60.9	57	45.6	0	2	90	0.00	30.052 
15:10	60.9	60.9	60.9	58	46.0	1	4	90	0.00	30.052 
15:15	61.3	61.3	61.3	58	46.4	0	2	90	0.00	30.052 
15:20	61.5	61.5	61.5	57	46.1	1	3	90	0.00	30.052 
15:25	61.6	61.6	61.6	56	45.7	1	3	90	0.00	30.052 
15:30	61.6	61.6	61.6	57	46.2	1	3	90	0.00	30.050 
15:35	61.8	61.8	61.8	57	46.4	1	4	270	0.00	30.050 
15:40	62.1	62.1	62.1	57	46.7	0	1	270	0.00	30.050 
15:45	62.3	62.3	62.3	56	46.4	1	3	270	0.00	30.050 
15:50	62.3	62.3	62.3	57	46.9	1	4	248	0.00	30.050 
15:55	62.6	62.6	62.6	56	46.7	0	3	338	0.00	30.050 
16:00	62.7	62.7	62.7	55	46.3	0	2	0	0.00	30.050 
16:05	62.7	62.7	62.7	56	46.8	1	3	0	0.00	30.050 
16:10	62.7	62.7	62.7	56	46.8	1	3	90	0.00	30.050 
16:15	62.7	62.7	62.7	54	45.8	1	5	90	0.00	30.048 
16:20	62.7	62.7	62.7	55	46.3	1	4	90	0.00	30.048 
16:25	62.6	62.6	62.6	57	47.1	0	3	90	0.00	30.048 
16:30	62.6	62.6	62.6	56	46.7	0	1	90	0.00	30.043 
16:35	62.6	62.6	62.6	56	46.7	1	4	90	0.00	30.043 
16:40	62.7	62.7	62.7	55	46.3	1	3	225	0.00	30.043 
16:45	62.9	62.9	62.9	56	47.0	0	2	225	0.00	30.042 
16:50	63.1	63.1	63.1	55	46.7	0	3	225	0.00	30.042 
16:55	62.9	62.9	62.9	55	46.5	1	3	112	0.00	30.042 
17:00	62.7	62.7	62.7	55	46.3	0	2	112	0.00	30.041 
17:05	62.7	62.7	62.7	55	46.3	0	3	112	0.00	30.041 
17:10	62.7	62.7	62.7	57	47.2	0	1	112	0.00	30.041 
17:15	62.9	62.9	62.9	56	47.0	0	3	112	0.00	30.039 
17:20	62.9	62.9	62.9	56	47.0	0	1	338	0.00	30.039 
17:25	62.7	62.7	62.7	56	46.8	0	3	248	0.00	30.039 
17:30	62.7	62.7	62.7	55	46.3	0	3	248	0.00	30.038 
17:35	62.7	62.7	62.7	56	46.8	0	2	248	0.00	30.038 
17:40	62.6	62.6	62.6	56	46.7	0	1	248	0.00	30.038 
17:45	62.6	62.6	62.6	55	46.2	0	2	248	0.00	30.036 
17:50	62.4	62.4	62.4	56	46.5	0	1	248	0.00	30.036 
17:55	62.4	62.4	62.4	56	46.5	0	1	248	0.00	30.036 
18:00	62.3	62.3	62.3	56	46.4	0	2	248	0.00	30.038 
18:05	62.3	62.3	62.3	56	46.4	0	1	248	0.00	30.038 
18:10	62.1	62.1	62.1	56	46.2	0	1	248	0.00	30.038 
18:15	62.0	62.0	62.0	57	46.6	0	1	248	0.00	30.037 
18:20	61.8	61.8	61.8	56	45.9	0	1	248	0.00	30.037 
18:25	61.6	61.6	61.6	58	46.7	0	1	248	0.00	30.037 
18:30	61.3	61.3	61.3	59	46.8	0	0	---	0.00	30.040 
18:35	60.9	60.9	60.9	59	46.5	0	0	---	0.00	30.040 
18:40	60.5	60.5	60.5	60	46.5	0	0	---	0.00	30.040 
18:45	60.1	60.1	60.1	62	47.0	0	0	---	0.00	30.043 
18:50	59.6	59.6	59.6	62	46.6	0	0	---	0.00	30.043 
18:55	59.2	59.2	59.2	63	46.6	0	0	---	0.00	30.043 
19:00	58.7	58.7	58.7	64	46.6	0	0	---	0.00	30.050 
19:05	58.1	58.1	58.1	65	46.4	0	0	---	0.00	30.050 
19:10	57.5	57.5	57.5	66	46.2	0	0	---	0.00	30.050 
19:15	57.0	57.0	57.0	68	46.5	0	0	---	0.00	30.057 
19:20	56.6	56.6	56.6	68	46.2	0	0	---	0.00	30.057 
19:25	56.2	56.2	56.2	68	45.8	0	0	---	0.00	30.057 
19:30	55.7	55.7	55.7	70	46.1	0	0	---	0.00	30.060 
19:35	55.3	55.3	55.3	70	45.7	0	0	---	0.00	30.060 
19:40	55.0	55.0	55.0	72	46.1	0	0	---	0.00	30.060 
19:45	54.5	54.5	54.5	74	46.4	0	0	---	0.00	30.061 
19:50	54.1	54.1	54.1	75	46.4	0	0	---	0.00	30.061 
19:55	53.8	53.8	53.8	75	46.1	0	0	---	0.00	30.061 
20:00	53.5	53.5	53.5	76	46.1	0	0	---	0.00	30.066 
20:05	53.2	53.2	53.2	77	46.2	0	0	---	0.00	30.066 
20:10	52.9	52.9	52.9	78	46.2	0	0	---	0.00	30.066 
20:15	52.8	52.8	52.8	79	46.5	0	0	---	0.00	30.071 
20:20	52.5	52.5	52.5	79	46.2	0	0	---	0.00	30.071 
20:25	52.2	52.2	52.2	79	45.9	0	0	---	0.00	30.071 
20:30	51.9	51.9	51.9	80	45.9	0	0	---	0.00	30.072 
20:35	51.7	51.7	51.7	82	46.4	0	0	---	0.00	30.072 
20:40	51.4	51.4	51.4	82	46.1	0	0	---	0.00	30.072 
20:45	51.1	51.1	51.1	83	46.1	0	1	248	0.00	30.074 
20:50	51.0	51.0	51.0	83	46.0	0	0	---	0.00	30.074 
20:55	50.8	50.8	50.8	84	46.1	0	0	---	0.00	30.074 
21:00	50.7	50.7	50.7	84	46.0	0	0	---	0.00	30.073 
21:05	50.5	50.5	50.5	84	45.8	0	0	---	0.00	30.073 
21:10	50.4	50.4	50.4	84	45.7	0	0	---	0.00	30.073 
21:15	50.4	50.4	50.4	85	46.1	0	0	---	0.00	30.069 
21:20	50.1	50.1	50.1	85	45.8	0	0	---	0.00	30.069 
21:25	49.9	49.9	49.9	85	45.6	0	0	---	0.00	30.069 
21:30	49.8	49.8	49.8	85	45.5	0	0	---	0.00	30.071 
21:35	49.8	49.8	49.8	86	45.8	0	0	---	0.00	30.071 
21:40	49.8	49.8	49.8	86	45.8	0	0	---	0.00	30.071 
21:45	49.6	49.6	49.6	86	45.6	0	0	---	0.00	30.072 
21:50	49.6	49.6	49.6	86	45.6	0	0	---	0.00	30.072 
21:55	49.5	49.5	49.5	86	45.5	0	0	---	0.00	30.072 
22:00	49.5	49.5	49.5	86	45.5	0	0	---	0.00	30.074 
22:05	49.4	49.4	49.4	86	45.4	0	0	---	0.00	30.074 
22:10	49.2	49.2	49.2	87	45.5	0	0	---	0.00	30.074 
22:15	49.2	49.2	49.2	87	45.5	0	0	---	0.00	30.069 
22:20	49.1	49.1	49.1	87	45.4	0	0	---	0.00	30.069 
22:25	48.9	48.9	48.9	87	45.2	0	0	---	0.00	30.069 
22:30	48.6	48.6	48.6	87	44.9	0	0	---	0.00	30.069 
22:35	48.5	48.5	48.5	88	45.1	0	0	---	0.00	30.069 
22:40	48.3	48.3	48.3	88	44.9	0	0	---	0.00	30.069 
22:45	48.2	48.2	48.2	88	44.8	0	0	---	0.00	30.071 
22:50	48.0	48.0	48.0	88	44.6	0	0	---	0.00	30.071 
22:55	47.9	47.9	47.9	88	44.5	0	0	---	0.00	30.071 
23:00	47.7	47.7	47.7	88	44.3	0	0	---	0.00	30.074 
23:05	47.6	47.6	47.6	88	44.2	0	0	---	0.00	30.074 
23:10	47.4	47.4	47.4	88	44.0	0	0	---	0.00	30.074 
23:15	47.1	47.1	47.1	88	43.7	0	0	---	0.00	30.067 
23:20	47.0	47.0	47.0	88	43.6	0	0	---	0.00	30.067 
23:25	46.8	46.8	46.8	89	43.7	0	0	---	0.00	30.067 
23:30	46.7	46.7	46.7	89	43.6	0	0	---	0.00	30.068 
23:35	46.7	46.7	46.7	89	43.6	0	0	---	0.00	30.068 
23:40	46.5	46.5	46.5	89	43.4	0	0	---	0.00	30.068 
23:45	46.5	46.5	46.5	89	43.4	0	0	---	0.00	30.066 
23:50	46.4	46.4	46.4	90	43.6	0	0	---	0.00	30.066 
23:55	46.4	46.4	46.4	90	43.6	0	0	---	0.00	30.066 

CoCoRaHS
IN-AL-39
A2 Web Hosting
Creative Commons License
GoDaddy
search engine by freefind advanced

loaded 2018-11-15 18:13:20 • last modified 2010-11-18 10:43:29
Privacy PolicyDisclaimer
• wx.awcolley.com is powered by PmWiki v.2002016 •
• all content (unless otherwise noted) © 2018 A W Colley